Time;durP1;ratioP1;P1;durP2;ratioP2;P2;SDS_P1;SDS_P2;PMS_P1;PMS_P2;Temp;Humidity;BMP_temperature;BMP_pressure;BME280_temperature;BME280_humidity;BME280_pressure;Samples;Min_cycle;Max_cycle;Signal;HPM_P1;HPM_P2
2022/10/15 00:00:40;;;;;;;50.00;29.10;;;;;;;8.87;100.00;99552.35;105971;1284;73048;-73
2022/10/15 00:03:31;;;;;;;50.80;28.00;;;;;;;8.93;100.00;99545.88;105890;1292;66187;-73
2022/10/15 00:06:20;;;;;;;48.50;27.20;;;;;;;8.99;100.00;99545.59;105848;1295;72697;-74
2022/10/15 00:09:08;;;;;;;45.20;24.70;;;;;;;9.04;100.00;99545.39;105934;1292;60380;-72
2022/10/15 00:11:55;;;;;;;48.20;26.90;;;;;;;9.07;100.00;99541.40;105875;1290;58960;-72
2022/10/15 00:14:43;;;;;;;46.60;28.10;;;;;;;9.12;100.00;99537.45;105943;1290;71748;-73
2022/10/15 00:17:33;;;;;;;50.50;28.50;;;;;;;9.17;100.00;99537.04;105984;1291;67774;-72
2022/10/15 00:20:21;;;;;;;43.50;24.90;;;;;;;9.23;100.00;99528.65;105959;1290;72586;-74
2022/10/15 00:23:09;;;;;;;49.00;28.40;;;;;;;9.28;100.00;99525.27;105972;1292;57935;-73
2022/10/15 00:26:12;;;;;;;46.30;27.00;;;;;;;9.31;100.00;99529.73;105997;1296;60324;-72
2022/10/15 00:29:02;;;;;;;43.10;24.20;;;;;;;9.35;100.00;99539.54;105872;1291;74137;-72
2022/10/15 00:31:50;;;;;;;46.10;27.30;;;;;;;9.35;100.00;99542.31;105974;1292;67744;-71
2022/10/15 00:34:37;;;;;;;40.70;23.10;;;;;;;9.36;100.00;99539.06;105931;1292;73621;-72
2022/10/15 00:37:25;;;;;;;44.10;26.10;;;;;;;9.37;100.00;99540.95;105963;1298;59481;-72
2022/10/15 00:40:14;;;;;;;44.70;24.20;;;;;;;9.37;100.00;99544.64;105973;1288;58968;-71
2022/10/15 00:43:02;;;;;;;42.50;26.20;;;;;;;9.36;100.00;99542.23;105978;1291;73207;-71
2022/10/15 00:45:49;;;;;;;49.00;26.40;;;;;;;9.33;100.00;99541.61;105965;1292;67991;-72
2022/10/15 00:48:37;;;;;;;47.30;26.90;;;;;;;9.28;100.00;99537.83;105861;1290;72829;-72
2022/10/15 00:51:32;;;;;;;43.60;25.70;;;;;;;9.24;100.00;99538.62;105949;1292;59375;-70
2022/10/15 00:54:20;;;;;;;50.30;26.40;;;;;;;9.21;100.00;99532.69;105967;1285;58664;-72
2022/10/15 00:57:09;;;;;;;44.40;25.20;;;;;;;9.18;100.00;99525.31;105865;1291;73020;-71
2022/10/15 01:00:03;;;;;;;42.70;25.30;;;;;;;9.15;100.00;99522.33;105828;1292;67793;-71
2022/10/15 01:02:51;;;;;;;41.90;24.30;;;;;;;9.11;100.00;99523.05;105868;1290;70317;-71
2022/10/15 01:05:41;;;;;;;52.20;27.20;;;;;;;9.08;100.00;99516.23;105950;1291;60660;-71
2022/10/15 01:08:30;;;;;;;44.80;24.50;;;;;;;9.06;100.00;99513.92;105980;1284;59037;-72
2022/10/15 01:11:35;;;;;;;46.40;25.30;;;;;;;9.03;100.00;99511.83;105966;1292;71810;-72
2022/10/15 01:14:44;;;;;;;47.80;25.60;;;;;;;9.01;100.00;99509.48;105968;1292;65783;-71
2022/10/15 01:17:35;;;;;;;47.00;26.30;;;;;;;9.00;100.00;99498.75;105943;1290;73581;-72
2022/10/15 01:20:48;;;;;;;45.50;25.40;;;;;;;8.99;100.00;99494.42;105948;1292;59618;-71
2022/10/15 01:24:04;;;;;;;47.50;26.40;;;;;;;9.04;100.00;99499.71;105950;1292;60081;-72
2022/10/15 01:27:40;;;;;;;44.40;25.10;;;;;;;9.06;100.00;99500.27;105850;1296;71436;-71
2022/10/15 01:30:44;;;;;;;50.00;26.20;;;;;;;9.10;100.00;99496.76;105929;1292;66593;-70
2022/10/15 01:33:42;;;;;;;44.90;23.80;;;;;;;9.13;100.00;99491.20;105942;1289;73727;-70
2022/10/15 01:36:47;;;;;;;46.50;27.30;;;;;;;9.17;100.00;99488.05;105841;1295;59123;-72
2022/10/15 01:39:43;;;;;;;48.30;26.70;;;;;;;9.23;100.00;99482.65;105824;1291;61349;-72
2022/10/15 01:42:57;;;;;;;48.30;26.00;;;;;;;9.29;100.00;99469.60;105732;1293;74088;-71
2022/10/15 01:45:58;;;;;;;50.30;26.50;;;;;;;9.35;100.00;99466.73;105805;1293;66493;-72
2022/10/15 01:49:04;;;;;;;52.20;26.50;;;;;;;9.43;100.00;99461.20;105841;1280;72725;-70
2022/10/15 01:51:54;;;;;;;48.70;25.00;;;;;;;9.49;100.00;99466.48;105762;1290;57573;-72
2022/10/15 01:54:46;;;;;;;45.40;24.90;;;;;;;9.55;100.00;99468.66;105807;1284;61118;-70
2022/10/15 01:57:36;;;;;;;47.70;26.10;;;;;;;9.61;100.00;99467.69;105818;1295;73786;-71
2022/10/15 02:00:24;;;;;;;47.50;25.40;;;;;;;9.65;100.00;99467.48;105835;1293;66312;-72
2022/10/15 02:03:13;;;;;;;48.00;25.20;;;;;;;9.69;100.00;99463.40;105952;1292;71270;-71
2022/10/15 02:06:09;;;;;;;44.00;25.70;;;;;;;9.74;100.00;99464.46;105947;1290;60572;-73
2022/10/15 02:09:18;;;;;;;52.10;25.50;;;;;;;9.80;100.00;99460.80;105666;1295;60310;-72
2022/10/15 02:12:40;;;;;;;48.00;27.20;;;;;;;9.85;100.00;99457.48;105686;1294;74057;-73
2022/10/15 02:16:04;;;;;;;49.40;26.60;;;;;;;9.89;100.00;99453.25;105697;1301;67531;-74
2022/10/15 02:19:31;;;;;;;47.10;25.40;;;;;;;9.91;100.00;99452.19;105633;1300;73707;-72
2022/10/15 02:22:52;;;;;;;51.70;25.70;;;;;;;9.93;100.00;99452.21;105576;1304;60650;-72
2022/10/15 02:25:42;;;;;;;40.50;24.60;;;;;;;9.94;100.00;99451.43;105686;1294;59124;-71
2022/10/15 02:28:32;;;;;;;50.30;26.40;;;;;;;9.95;100.00;99447.79;105659;1295;74114;-70
2022/10/15 02:31:22;;;;;;;40.20;23.10;;;;;;;9.95;100.00;99447.80;105712;1299;68902;-71
2022/10/15 02:34:16;;;;;;;47.90;25.20;;;;;;;9.94;100.00;99449.83;105578;1298;71021;-71
2022/10/15 02:37:06;;;;;;;41.20;23.10;;;;;;;9.92;100.00;99451.41;105470;1305;57201;-71
2022/10/15 02:39:54;;;;;;;43.00;21.80;;;;;;;9.89;100.00;99447.37;105553;1295;59365;-71
2022/10/15 02:42:43;;;;;;;47.60;26.50;;;;;;;9.88;100.00;99447.83;105630;1296;73841;-70
2022/10/15 02:45:31;;;;;;;53.30;26.90;;;;;;;9.88;100.00;99445.05;105664;1295;67890;-72
2022/10/15 02:48:19;;;;;;;51.60;26.80;;;;;;;9.85;100.00;99440.65;105659;1293;73673;-72
2022/10/15 02:51:07;;;;;;;48.50;26.60;;;;;;;9.84;100.00;99437.52;105640;1295;60370;-72
2022/10/15 02:53:55;;;;;;;50.30;27.30;;;;;;;9.84;100.00;99437.75;105672;1301;60329;-73
2022/10/15 02:56:42;;;;;;;48.20;26.20;;;;;;;9.85;100.00;99434.79;105662;1291;73019;-72
2022/10/15 02:59:31;;;;;;;50.30;26.50;;;;;;;9.86;100.00;99433.83;105638;1298;67458;-72
2022/10/15 03:02:19;;;;;;;47.70;25.00;;;;;;;9.87;100.00;99434.67;105588;1299;72726;-71
2022/10/15 03:05:08;;;;;;;45.60;26.40;;;;;;;9.88;100.00;99429.40;105728;1290;60415;-71
2022/10/15 03:07:58;;;;;;;49.50;25.20;;;;;;;9.89;100.00;99422.91;105957;1291;61227;-70
2022/10/15 03:10:47;;;;;;;47.70;25.50;;;;;;;9.92;100.00;99425.89;105796;1295;73940;-73
2022/10/15 03:13:38;;;;;;;47.10;24.50;;;;;;;9.94;100.00;99423.98;105784;1295;67753;-71
2022/10/15 03:16:26;;;;;;;47.70;26.30;;;;;;;9.96;100.00;99421.84;105730;1303;73791;-73
2022/10/15 03:19:14;;;;;;;45.10;23.80;;;;;;;9.98;100.00;99420.98;105829;1290;60644;-72
2022/10/15 03:22:04;;;;;;;50.30;26.80;;;;;;;9.97;100.00;99422.24;105760;1292;60094;-73
2022/10/15 03:25:00;;;;;;;41.30;21.10;;;;;;;9.94;100.00;99418.50;105731;1293;72897;-71
2022/10/15 03:27:49;;;;;;;52.00;25.50;;;;;;;9.86;100.00;99417.02;105848;1292;68933;-71
2022/10/15 03:30:43;;;;;;;47.30;24.70;;;;;;;9.79;100.00;99416.03;105827;1291;73833;-70
2022/10/15 03:33:32;;;;;;;44.40;26.90;;;;;;;9.75;100.00;99416.23;105768;1294;58121;-71
2022/10/15 03:36:20;;;;;;;50.00;27.00;;;;;;;9.69;100.00;99413.48;105751;1295;57876;-72
2022/10/15 03:39:10;;;;;;;48.40;27.00;;;;;;;9.64;100.00;99415.67;105848;1288;73003;-72
2022/10/15 03:41:58;;;;;;;45.50;25.00;;;;;;;9.59;100.00;99413.83;105849;1295;66306;-72
2022/10/15 03:44:53;;;;;;;52.50;27.20;;;;;;;9.55;100.00;99409.18;105827;1298;73760;-73
2022/10/15 03:47:41;;;;;;;46.80;24.50;;;;;;;9.50;100.00;99406.73;105853;1292;57870;-71
2022/10/15 03:50:29;;;;;;;43.00;23.40;;;;;;;9.47;100.00;99402.95;105854;1292;60381;-71
2022/10/15 03:53:19;;;;;;;41.40;24.20;;;;;;;9.44;100.00;99403.88;105826;1298;71849;-72
2022/10/15 03:56:07;;;;;;;46.80;26.50;;;;;;;9.40;100.00;99400.31;105758;1291;67911;-72
2022/10/15 03:58:57;;;;;;;49.60;27.40;;;;;;;9.36;100.00;99396.21;105827;1279;72686;-73
2022/10/15 04:01:44;;;;;;;49.50;25.70;;;;;;;9.31;100.00;99388.64;105804;1294;59595;-72
2022/10/15 04:04:32;;;;;;;48.20;26.00;;;;;;;9.27;100.00;99377.71;105820;1297;60122;-72
2022/10/15 04:07:20;;;;;;;52.10;28.40;;;;;;;9.24;100.00;99373.80;105738;1301;73898;-71
2022/10/15 04:10:08;;;;;;;46.40;26.20;;;;;;;9.23;100.00;99369.58;105743;1301;66701;-72
2022/10/15 04:12:58;;;;;;;53.80;27.30;;;;;;;9.20;100.00;99363.73;105850;1291;73436;-71
2022/10/15 04:15:46;;;;;;;52.70;28.40;;;;;;;9.18;100.00;99364.42;105836;1284;58274;-72
2022/10/15 04:18:36;;;;;;;44.50;24.30;;;;;;;9.15;100.00;99364.83;105742;1293;61140;-73
2022/10/15 04:21:25;;;;;;;58.30;31.00;;;;;;;9.13;100.00;99366.77;105735;1292;73802;-72
2022/10/15 04:24:16;;;;;;;53.80;27.60;;;;;;;9.14;100.00;99368.67;105764;1290;67891;-73
2022/10/15 04:27:04;;;;;;;55.50;27.80;;;;;;;9.14;100.00;99366.20;105756;1293;73695;-72
2022/10/15 04:29:52;;;;;;;50.90;28.30;;;;;;;9.12;100.00;99367.92;105721;1295;60453;-72
2022/10/15 04:32:39;;;;;;;54.40;28.60;;;;;;;9.11;100.00;99359.29;105732;1293;61215;-73
2022/10/15 04:35:28;;;;;;;50.50;27.00;;;;;;;9.11;100.00;99356.68;105694;1295;72781;-73
2022/10/15 04:38:38;;;;;;;56.50;31.30;;;;;;;9.10;100.00;99354.81;105813;1290;68912;-73
2022/10/15 04:41:27;;;;;;;55.50;30.90;;;;;;;9.10;100.00;99346.67;105710;1301;73511;-72
2022/10/15 04:44:27;;;;;;;59.20;30.20;;;;;;;9.12;100.00;99345.32;105703;1294;58359;-73
2022/10/15 04:47:16;;;;;;;61.80;32.00;;;;;;;9.13;100.00;99341.62;105729;1290;60299;-73
2022/10/15 04:50:09;;;;;;;61.80;31.30;;;;;;;9.17;100.00;99344.86;105710;1299;72168;-73
2022/10/15 04:53:16;;;;;;;51.00;28.00;;;;;;;9.18;100.00;99341.38;105823;1292;68712;-73
2022/10/15 04:56:14;;;;;;;59.40;32.40;;;;;;;9.20;100.00;99334.52;105711;1292;73612;-72
2022/10/15 04:59:07;;;;;;;60.00;31.70;;;;;;;9.23;100.00;99333.97;105710;1298;59520;-74
2022/10/15 05:02:05;;;;;;;52.70;29.00;;;;;;;9.25;100.00;99329.54;105712;1292;61397;-73
2022/10/15 05:04:54;;;;;;;56.50;31.30;;;;;;;9.27;100.00;99327.43;105743;1292;72927;-73
2022/10/15 05:07:41;;;;;;;60.20;30.60;;;;;;;9.29;100.00;99328.34;105727;1300;67582;-72
2022/10/15 05:10:30;;;;;;;56.20;30.90;;;;;;;9.29;100.00;99326.88;105724;1292;73738;-73
2022/10/15 05:13:21;;;;;;;66.30;34.00;;;;;;;9.30;100.00;99326.95;105690;1288;60454;-72
2022/10/15 05:16:22;;;;;;;61.50;33.80;;;;;;;9.32;100.00;99327.02;105724;1277;60149;-73
2022/10/15 05:19:11;;;;;;;51.80;28.50;;;;;;;9.32;100.00;99324.67;105705;1288;73172;-74
2022/10/15 05:21:59;;;;;;;57.60;31.80;;;;;;;9.32;100.00;99326.05;105709;1292;67787;-73
2022/10/15 05:24:47;;;;;;;61.00;33.20;;;;;;;9.30;100.00;99326.58;105831;1292;71055;-73
2022/10/15 05:27:55;;;;;;;58.20;32.70;;;;;;;9.30;100.00;99322.59;105711;1292;165693;-72
2022/10/15 05:30:43;;;;;;;66.20;36.00;;;;;;;9.30;100.00;99321.84;105815;1295;60344;-73
2022/10/15 05:33:31;;;;;;;64.00;35.10;;;;;;;9.34;100.00;99322.05;105729;1290;73098;-73
2022/10/15 05:36:26;;;;;;;57.00;32.20;;;;;;;9.38;100.00;99324.16;105680;1296;68644;-72
2022/10/15 05:39:15;;;;;;;62.00;33.70;;;;;;;9.43;100.00;99322.70;105701;1285;72934;-72
2022/10/15 05:42:03;;;;;;;58.60;31.20;;;;;;;9.48;100.00;99316.59;105713;1294;57889;-74
2022/10/15 05:45:11;;;;;;;68.80;36.10;;;;;;;9.53;100.00;99317.95;105842;1292;60264;-73
2022/10/15 05:48:01;;;;;;;49.80;26.80;;;;;;;9.59;100.00;99317.13;105760;1292;72666;-72
2022/10/15 05:50:48;;;;;;;61.00;31.80;;;;;;;9.62;100.00;99321.31;105735;1293;66304;-72
2022/10/15 05:53:42;;;;;;;66.00;34.50;;;;;;;9.65;100.00;99323.82;105705;1292;72266;-73
2022/10/15 05:56:30;;;;;;;58.20;31.00;;;;;;;9.69;100.00;99323.00;105812;1289;57886;-72
2022/10/15 05:59:18;;;;;;;58.30;31.50;;;;;;;9.73;100.00;99326.56;105831;1300;60128;-72
2022/10/15 06:02:14;;;;;;;55.90;30.30;;;;;;;9.75;100.00;99324.62;105813;1292;72951;-73
2022/10/15 06:05:05;;;;;;;63.90;34.70;;;;;;;9.77;100.00;99331.83;105736;1288;68929;-72
2022/10/15 06:07:53;;;;;;;47.30;27.20;;;;;;;9.80;100.00;99328.89;105802;1291;72479;-74
2022/10/15 06:10:41;;;;;;;68.00;38.60;;;;;;;9.82;100.00;99336.24;105835;1292;59478;-73
2022/10/15 06:13:29;;;;;;;54.40;30.30;;;;;;;9.83;100.00;99334.00;105899;1292;61622;-74
2022/10/15 06:16:17;;;;;;;67.10;36.90;;;;;;;9.84;100.00;99337.45;105954;1292;73238;-74
2022/10/15 06:19:10;;;;;;;71.60;38.70;;;;;;;9.88;100.00;99337.11;105952;1292;67638;-74
2022/10/15 06:21:58;;;;;;;64.60;35.20;;;;;;;9.93;100.00;99334.59;105924;1283;71089;-74
2022/10/15 06:24:46;;;;;;;58.70;32.20;;;;;;;9.99;100.00;99334.97;105847;1295;60467;-73
2022/10/15 06:27:34;;;;;;;65.80;35.80;;;;;;;10.04;100.00;99337.66;105723;1294;61339;-73
2022/10/15 06:30:21;;;;;;;68.30;36.10;;;;;;;10.10;100.00;99338.46;105888;1292;72903;-74
2022/10/15 06:33:10;;;;;;;56.90;32.20;;;;;;;10.14;100.00;99335.75;105748;1285;67675;-72
2022/10/15 06:36:07;;;;;;;67.00;39.10;;;;;;;10.19;99.91;99335.48;105887;1291;71820;-74
2022/10/15 06:38:54;;;;;;;61.30;35.00;;;;;;;10.21;99.71;99329.98;105741;1294;58208;-72
2022/10/15 06:41:42;;;;;;;60.70;34.40;;;;;;;10.23;99.67;99329.96;105748;1290;58689;-72
2022/10/15 06:44:30;;;;;;;67.00;36.60;;;;;;;10.26;99.40;99331.91;105794;1292;72796;-74
2022/10/15 06:47:18;;;;;;;68.30;34.30;;;;;;;10.39;99.59;99333.90;105866;1291;68650;-74
2022/10/15 06:50:08;;;;;;;65.40;36.90;;;;;;;10.67;98.56;99328.78;105897;1274;71004;-73
2022/10/15 06:52:57;;;;;;;59.30;33.30;;;;;;;10.96;96.93;99327.13;105876;1278;58462;-73
2022/10/15 06:55:47;;;;;;;50.50;29.70;;;;;;;11.34;95.92;99329.15;105878;1291;61310;-74
2022/10/15 06:58:35;;;;;;;57.00;33.10;;;;;;;12.68;94.11;99336.49;105895;1291;72903;-73
2022/10/15 07:01:23;;;;;;;55.10;34.40;;;;;;;14.11;84.70;99333.98;105918;1291;68807;-73
2022/10/15 07:04:11;;;;;;;50.60;31.30;;;;;;;15.29;78.85;99338.45;105744;1294;73569;-74
2022/10/15 07:06:58;;;;;;;40.30;25.60;;;;;;;16.34;73.18;99339.23;105914;1299;57721;-73
2022/10/15 07:09:51;;;;;;;48.50;30.80;;;;;;;17.15;67.66;99335.04;105907;1285;58794;-75
2022/10/15 07:12:39;;;;;;;48.60;31.50;;;;;;;17.81;64.40;99333.73;105902;1284;73397;-74
2022/10/15 07:15:28;;;;;;;49.10;32.90;;;;;;;18.34;61.68;99334.17;105871;1292;67698;-74
2022/10/15 07:18:15;;;;;;;46.30;30.10;;;;;;;18.36;60.59;99346.06;105874;1285;72433;-73
2022/10/15 07:21:07;;;;;;;44.70;29.20;;;;;;;17.65;61.52;99341.71;105884;1285;59282;-73
2022/10/15 07:23:56;;;;;;;43.40;30.40;;;;;;;17.77;61.07;99344.80;105693;1277;59320;-73
2022/10/15 07:26:49;;;;;;;51.20;30.60;;;;;;;18.50;60.38;99337.20;105632;1283;72973;-74
2022/10/15 07:29:39;;;;;;;44.70;29.80;;;;;;;19.23;57.69;99333.65;105705;1278;67972;-74
2022/10/15 07:32:32;;;;;;;42.60;28.70;;;;;;;20.21;55.43;99335.90;105751;1295;72872;-74
2022/10/15 07:35:21;;;;;;;44.30;29.10;;;;;;;20.96;52.26;99329.31;105693;1295;57723;-75
2022/10/15 07:38:09;;;;;;;38.50;28.30;;;;;;;20.94;50.50;99335.42;105886;1284;58118;-74
2022/10/15 07:40:59;;;;;;;39.70;27.50;;;;;;;20.53;51.12;99330.52;105895;1291;71726;-73
2022/10/15 07:43:50;;;;;;;34.90;25.50;;;;;;;19.56;53.08;99331.48;105765;1292;67573;-74
2022/10/15 07:46:37;;;;;;;42.80;26.70;;;;;;;18.55;55.87;99332.45;105865;1292;73722;-74
2022/10/15 07:49:25;;;;;;;38.60;24.50;;;;;;;17.87;58.46;99332.65;105898;1285;57668;-74
2022/10/15 07:52:13;;;;;;;41.20;25.90;;;;;;;17.16;60.76;99331.45;105893;1291;59030;-73
2022/10/15 07:55:02;;;;;;;42.50;28.30;;;;;;;16.56;62.86;99328.13;105891;1291;72809;-73
2022/10/15 07:57:49;;;;;;;40.50;25.20;;;;;;;16.13;64.72;99336.23;105890;1285;68693;-73
2022/10/15 08:00:37;;;;;;;42.80;26.20;;;;;;;15.79;66.52;99337.48;105849;1298;73621;-74
2022/10/15 08:03:25;;;;;;;42.70;26.30;;;;;;;15.54;68.02;99338.75;105904;1284;57261;-73
2022/10/15 08:06:13;;;;;;;43.40;26.80;;;;;;;15.47;68.65;99336.88;105745;1292;58857;-73
2022/10/15 08:09:04;;;;;;;39.50;25.30;;;;;;;15.32;69.52;99330.98;105888;1287;72891;-74
2022/10/15 08:11:52;;;;;;;42.40;26.80;;;;;;;15.24;70.37;99332.02;105907;1284;68645;-74
2022/10/15 08:14:40;;;;;;;41.50;26.30;;;;;;;15.27;70.35;99327.77;105876;1292;72506;-74
2022/10/15 08:17:28;;;;;;;45.10;24.60;;;;;;;15.86;69.64;99326.87;105872;1290;60360;-73
2022/10/15 08:20:15;;;;;;;34.40;22.60;;;;;;;17.03;66.24;99315.27;105892;1285;60069;-73
2022/10/15 08:23:04;;;;;;;37.60;22.70;;;;;;;18.23;60.71;99308.55;105863;1291;74006;-73
2022/10/15 08:25:52;;;;;;;36.20;23.20;;;;;;;19.61;56.86;99309.08;105886;1277;69046;-74
2022/10/15 08:28:40;;;;;;;32.30;22.40;;;;;;;20.87;51.94;99307.38;105872;1291;72367;-74
2022/10/15 08:31:28;;;;;;;34.80;22.50;;;;;;;22.39;49.02;99298.50;105887;1291;57615;-73
2022/10/15 08:34:16;;;;;;;32.80;21.30;;;;;;;23.74;44.70;99298.83;105913;1284;59042;-74
2022/10/15 08:37:04;;;;;;;29.20;20.80;;;;;;;24.57;42.39;99306.06;105758;1286;72767;-74
2022/10/15 08:39:52;;;;;;;32.10;21.00;;;;;;;24.24;41.62;99305.27;105914;1284;68669;-73
2022/10/15 08:42:43;;;;;;;31.60;20.50;;;;;;;23.67;42.47;99305.21;105886;1291;70552;-74
2022/10/15 08:45:41;;;;;;;30.10;18.80;;;;;;;22.64;43.84;99306.47;105761;1291;57263;-74
2022/10/15 08:48:52;;;;;;;27.70;19.00;;;;;;;21.64;46.08;99307.48;105750;1291;60217;-75
2022/10/15 08:51:49;;;;;;;31.00;19.90;;;;;;;20.65;48.78;99318.31;105764;1292;72883;-74
2022/10/15 08:54:39;;;;;;;30.80;19.80;;;;;;;19.95;50.75;99317.73;105702;1293;68811;-76
2022/10/15 08:57:42;;;;;;;30.60;20.90;;;;;;;19.97;51.54;99317.29;105891;1284;71087;-74
2022/10/15 09:01:03;;;;;;;31.30;19.80;;;;;;;19.91;51.26;99320.56;105771;1288;57323;-74
2022/10/15 09:04:15;;;;;;;31.40;19.80;;;;;;;18.96;53.90;99309.29;105905;1291;58681;-74
2022/10/15 09:07:29;;;;;;;32.50;21.20;;;;;;;19.07;54.07;99312.55;105754;1293;72747;-75
2022/10/15 09:10:29;;;;;;;30.30;20.60;;;;;;;18.85;54.86;99306.89;105787;1293;68658;-74
2022/10/15 09:13:30;;;;;;;31.20;20.20;;;;;;;18.73;55.40;99311.84;105735;1287;72485;-75
2022/10/15 09:16:25;;;;;;;30.70;20.00;;;;;;;18.67;55.87;99315.79;105893;1286;57381;-75
2022/10/15 09:19:21;;;;;;;31.30;20.10;;;;;;;18.36;56.52;99317.02;105779;1287;58924;-74
2022/10/15 09:22:16;;;;;;;29.50;18.80;;;;;;;18.01;57.38;99317.35;105876;1292;73431;-74
2022/10/15 09:25:19;;;;;;;29.90;19.50;;;;;;;17.81;58.22;99316.62;105774;1294;66184;-73
2022/10/15 09:28:16;;;;;;;36.20;21.90;;;;;;;17.50;59.09;99317.83;105749;1291;72320;-73
2022/10/15 09:31:09;;;;;;;34.00;21.90;;;;;;;17.24;59.92;99318.94;105867;1275;57941;-73
2022/10/15 09:34:32;;;;;;;33.50;23.20;;;;;;;17.13;60.55;99322.44;105777;1293;60062;-75
2022/10/15 09:38:04;;;;;;;34.40;21.40;;;;;;;17.02;61.21;99322.17;105792;1291;71855;-75
2022/10/15 09:41:38;;;;;;;33.80;20.30;;;;;;;17.02;61.47;99316.61;105315;1292;67031;-75
2022/10/15 09:44:35;;;;;;;30.50;20.60;;;;;;;17.13;61.29;99312.68;105327;1306;72586;-74
2022/10/15 09:47:29;;;;;;;32.60;20.30;;;;;;;17.05;61.80;99316.51;105188;1303;57946;-73
2022/10/15 09:50:20;;;;;;;32.20;19.70;;;;;;;16.95;62.06;99316.50;105333;1296;61132;-73
2022/10/15 09:53:31;;;;;;;34.00;21.40;;;;;;;16.86;62.70;99313.70;105267;1299;74176;-73
2022/10/15 09:56:25;;;;;;;32.30;20.70;;;;;;;16.58;63.78;99316.84;105326;1300;66465;-73
2022/10/15 09:59:18;;;;;;;33.20;21.30;;;;;;;16.33;64.92;99310.73;105308;1300;71317;-73
2022/10/15 10:02:19;;;;;;;29.20;19.30;;;;;;;16.10;65.84;99314.70;105298;1306;57753;-73
2022/10/15 10:05:30;;;;;;;35.90;21.30;;;;;;;15.82;67.22;99312.47;105361;1296;61138;-73
2022/10/15 10:08:26;;;;;;;30.00;18.00;;;;;;;15.59;68.62;99306.57;105281;1301;73869;-73
2022/10/15 10:11:14;;;;;;;35.60;21.40;;;;;;;15.54;69.08;99310.36;105323;1298;67923;-72
2022/10/15 10:14:03;;;;;;;33.00;20.50;;;;;;;15.65;69.10;99309.90;105277;1293;71285;-73
2022/10/15 10:17:26;;;;;;;33.80;19.50;;;;;;;15.80;68.71;99310.36;105299;1300;58346;-74
2022/10/15 10:20:23;;;;;;;33.20;19.70;;;;;;;16.16;67.73;99311.06;105871;1284;59977;-73
2022/10/15 10:23:24;;;;;;;30.70;16.90;;;;;;;16.25;66.85;99307.13;105766;1291;71834;-73
2022/10/15 10:26:12;;;;;;;28.40;17.00;;;;;;;16.14;67.07;99308.35;105902;1291;68693;-74
2022/10/15 10:29:01;;;;;;;25.70;15.50;;;;;;;16.02;67.15;99314.11;105892;1292;72770;-73
2022/10/15 10:32:31;;;;;;;30.90;16.80;;;;;;;15.90;67.42;99324.98;105889;1291;58254;-73
2022/10/15 10:35:22;;;;;;;27.50;15.70;;;;;;;15.77;68.00;99317.38;105904;1284;60206;-74
2022/10/15 10:38:32;;;;;;;24.80;15.30;;;;;;;15.81;68.41;99319.89;105685;1284;74060;-72
2022/10/15 10:41:19;;;;;;;28.80;16.60;;;;;;;15.74;68.68;99324.27;105884;1285;68892;-72
2022/10/15 10:44:26;;;;;;;25.50;15.30;;;;;;;15.58;69.08;99321.23;105882;1284;73701;-73
2022/10/15 10:47:23;;;;;;;26.60;16.30;;;;;;;15.31;70.76;99316.98;105732;1291;60602;-73
2022/10/15 10:50:36;;;;;;;25.00;16.00;;;;;;;14.98;73.31;99324.61;105870;1291;60234;-73
2022/10/15 10:53:24;;;;;;;26.60;15.70;;;;;;;14.70;75.62;99323.77;105864;1291;74720;-73
2022/10/15 10:56:14;;;;;;;35.70;21.00;;;;;;;14.45;76.81;99325.41;105894;1291;68679;-72
2022/10/15 10:59:20;;;;;;;28.50;16.70;;;;;;;14.14;79.49;99325.22;105804;1292;73479;-72
2022/10/15 11:02:11;;;;;;;31.40;17.90;;;;;;;13.87;81.36;99325.08;105869;1291;61130;-72
2022/10/15 11:04:58;;;;;;;32.50;20.00;;;;;;;13.69;82.68;99328.11;105878;1291;61155;-72
2022/10/15 11:08:07;;;;;;;31.40;19.10;;;;;;;13.62;83.21;99325.30;105750;1270;73529;-72
2022/10/15 11:11:16;;;;;;;28.30;16.00;;;;;;;13.55;84.49;99328.14;105785;1291;67750;-73
2022/10/15 11:14:43;;;;;;;30.10;19.10;;;;;;;13.55;84.93;99327.09;105875;1284;72512;-73
2022/10/15 11:17:52;;;;;;;35.80;22.00;;;;;;;13.77;84.74;99326.93;105888;1291;58612;-73
2022/10/15 11:21:08;;;;;;;35.40;20.70;;;;;;;14.01;83.53;99321.45;105912;1291;59076;-73
2022/10/15 11:24:43;;;;;;;31.70;18.10;;;;;;;14.24;82.26;99320.02;105912;1291;74207;-72
2022/10/15 11:28:14;;;;;;;36.70;21.90;;;;;;;14.49;81.08;99313.46;105895;1292;68110;-72
2022/10/15 11:31:25;;;;;;;33.60;21.50;;;;;;;14.73;80.07;99307.13;105830;1291;71035;-73
2022/10/15 11:34:40;;;;;;;36.60;20.70;;;;;;;14.92;78.80;99303.65;105875;1299;60567;-72
2022/10/15 11:37:55;;;;;;;35.80;21.90;;;;;;;15.12;78.31;99298.15;105895;1284;59244;-73
2022/10/15 11:41:10;;;;;;;31.80;20.50;;;;;;;15.35;77.70;99296.41;105757;1291;73340;-73
2022/10/15 11:44:22;;;;;;;31.20;19.40;;;;;;;15.57;77.19;99298.05;105892;1290;66975;-72
2022/10/15 11:47:12;;;;;;;33.20;20.40;;;;;;;15.69;76.28;99291.36;105877;1291;72513;-74
2022/10/15 11:50:31;;;;;;;32.90;20.60;;;;;;;15.64;76.37;99296.02;105879;1291;58425;-72
2022/10/15 11:53:27;;;;;;;29.50;17.90;;;;;;;15.56;76.12;99294.95;105896;1291;57916;-73
2022/10/15 11:56:25;;;;;;;29.80;18.90;;;;;;;15.54;76.53;99293.57;105883;1284;72826;-74
2022/10/15 11:59:46;;;;;;;31.70;17.90;;;;;;;15.52;76.62;99290.06;105904;1284;67557;-73
2022/10/15 12:02:37;;;;;;;26.80;16.40;;;;;;;15.45;76.81;99295.92;105791;1288;72782;-74
2022/10/15 12:05:38;;;;;;;30.70;17.80;;;;;;;15.30;77.05;99294.36;105879;1275;58249;-73
2022/10/15 12:08:32;;;;;;;29.50;18.00;;;;;;;15.19;77.37;99291.98;105754;1291;61689;-74
2022/10/15 12:11:30;;;;;;;33.70;19.40;;;;;;;15.17;77.82;99289.83;105773;1292;70841;-73
2022/10/15 12:14:42;;;;;;;34.50;20.20;;;;;;;15.13;78.12;99286.20;105886;1291;66901;-74
2022/10/15 12:17:45;;;;;;;31.10;18.00;;;;;;;15.08;78.25;99285.20;105878;1285;72517;-73
2022/10/15 12:20:33;;;;;;;34.00;20.10;;;;;;;15.07;78.44;99279.23;105880;1291;58324;-74
2022/10/15 12:23:42;;;;;;;23.30;14.30;;;;;;;15.12;78.37;99283.19;105865;1285;59428;-73
2022/10/15 12:26:33;;;;;;;29.10;17.90;;;;;;;15.15;78.45;99286.07;105756;1284;72106;-73
2022/10/15 12:29:26;;;;;;;29.70;17.90;;;;;;;15.17;78.54;99285.11;105886;1291;68040;-73
2022/10/15 12:32:28;;;;;;;31.00;18.70;;;;;;;15.22;78.29;99285.65;105752;1283;71033;-73
2022/10/15 12:35:20;;;;;;;30.20;18.40;;;;;;;15.45;77.73;99281.52;105727;1294;58209;-74
2022/10/15 12:38:30;;;;;;;26.00;15.80;;;;;;;15.88;75.65;99284.27;105902;1291;60221;-73
2022/10/15 12:41:18;;;;;;;23.30;14.40;;;;;;;16.10;74.54;99282.04;105704;1287;73146;-74
2022/10/15 12:44:31;;;;;;;25.90;11.10;;;;;;;16.10;72.92;99280.36;105893;1291;68954;-73
2022/10/15 12:48:15;;;;;;;22.80;13.70;;;;;;;16.07;72.76;99283.99;105899;1291;72326;-75
2022/10/15 12:51:15;;;;;;;22.90;12.90;;;;;;;15.99;73.40;99281.06;105250;1300;60559;-74
2022/10/15 12:54:35;;;;;;;26.00;14.20;;;;;;;15.86;73.65;99285.61;105336;1300;60526;-73
2022/10/15 12:57:29;;;;;;;22.20;12.80;;;;;;;15.69;74.61;99282.04;105320;1300;73027;-73
2022/10/15 13:00:33;;;;;;;23.80;12.10;;;;;;;15.53;75.17;99285.59;105370;1299;66232;-74
2022/10/15 13:03:35;;;;;;;20.10;12.00;;;;;;;15.41;75.71;99287.13;105266;1300;70759;-72
2022/10/15 13:06:32;;;;;;;21.70;12.40;;;;;;;15.20;76.36;99287.48;105333;1300;59523;-72
2022/10/15 13:09:29;;;;;;;22.00;13.00;;;;;;;15.04;77.01;99280.13;105334;1300;60308;-73
2022/10/15 13:12:28;;;;;;;20.50;11.30;;;;;;;14.95;77.80;99275.88;105351;1299;72783;-73
2022/10/15 13:15:16;;;;;;;19.60;10.70;;;;;;;14.90;78.07;99272.70;105367;1292;68368;-73
2022/10/15 13:18:12;;;;;;;20.50;12.00;;;;;;;14.82;78.51;99282.67;105274;1300;71639;-72